Terminal Aerodrome Forecast
Issued by NWS Cleveland, OH

Home | Current Version | Previous Version | Graphics & Text | Print | Product List | Glossary Off
Versions: 1 2 3 4 5 6 7 8 9 10 11 12 13 14 15 16 17 18 19 20 21 22

000
FTUS41 KCLE 192300 CCA
TAFMFD
TAF COR
KMFD 192341Z 2000/2024 20008KT P6SM VCSH BKN050
      TEMPO 2000/2003 27015G30KT 2SM TSRA OVC025CB
     FM200400 22008KT 5SM SHRA OVC050
     FM200500 20006KT 4SM BR BKN030
     FM200900 20004KT 1 1/2SM BR BKN015
     FM201300 25006KT 4SM BR SCT025 BKN100
     FM201500 27010KT P6SM BKN100=

USA.gov is the U.S. government's official web portal to all federal, state and local government web resources and services.